sensor_id;sensor_type;location;lat;lon;timestamp;P1;durP1;ratioP1;P2;durP2;ratioP2
73113;SDS011;61301;51.956;5.876;2023-04-03T00:01:16;1.80;;;1.27;;
73113;SDS011;61301;51.956;5.876;2023-04-03T00:03:43;3.03;;;1.20;;
73113;SDS011;61301;51.956;5.876;2023-04-03T00:06:10;6.10;;;1.50;;
73113;SDS011;61301;51.956;5.876;2023-04-03T00:08:37;2.22;;;1.20;;
73113;SDS011;61301;51.956;5.876;2023-04-03T00:11:04;1.67;;;0.90;;
73113;SDS011;61301;51.956;5.876;2023-04-03T00:13:31;4.00;;;1.50;;
73113;SDS011;61301;51.956;5.876;2023-04-03T00:15:58;3.55;;;1.45;;
73113;SDS011;61301;51.956;5.876;2023-04-03T00:18:24;3.22;;;1.10;;
73113;SDS011;61301;51.956;5.876;2023-04-03T00:20:50;4.18;;;1.42;;
73113;SDS011;61301;51.956;5.876;2023-04-03T00:23:16;1.52;;;1.20;;
73113;SDS011;61301;51.956;5.876;2023-04-03T00:25:42;2.92;;;1.40;;
73113;SDS011;61301;51.956;5.876;2023-04-03T00:28:08;3.45;;;1.10;;
73113;SDS011;61301;51.956;5.876;2023-04-03T00:30:35;3.80;;;1.15;;
73113;SDS011;61301;51.956;5.876;2023-04-03T00:33:01;1.80;;;1.00;;
73113;SDS011;61301;51.956;5.876;2023-04-03T00:35:27;3.05;;;1.30;;
73113;SDS011;61301;51.956;5.876;2023-04-03T00:37:54;3.25;;;1.08;;
73113;SDS011;61301;51.956;5.876;2023-04-03T00:40:22;2.05;;;1.20;;
73113;SDS011;61301;51.956;5.876;2023-04-03T00:42:55;3.33;;;1.08;;
73113;SDS011;61301;51.956;5.876;2023-04-03T00:47:54;3.70;;;1.30;;
73113;SDS011;61301;51.956;5.876;2023-04-03T00:50:21;2.65;;;1.48;;
73113;SDS011;61301;51.956;5.876;2023-04-03T00:52:48;3.47;;;1.25;;
73113;SDS011;61301;51.956;5.876;2023-04-03T00:55:14;4.32;;;1.25;;
73113;SDS011;61301;51.956;5.876;2023-04-03T00:57:41;3.47;;;1.40;;
73113;SDS011;61301;51.956;5.876;2023-04-03T01:00:11;3.58;;;1.50;;
73113;SDS011;61301;51.956;5.876;2023-04-03T01:02:40;3.75;;;1.05;;
73113;SDS011;61301;51.956;5.876;2023-04-03T01:05:10;2.33;;;1.20;;
73113;SDS011;61301;51.956;5.876;2023-04-03T01:07:37;4.70;;;1.40;;
73113;SDS011;61301;51.956;5.876;2023-04-03T01:10:05;1.98;;;1.00;;
73113;SDS011;61301;51.956;5.876;2023-04-03T01:12:38;5.15;;;1.73;;
73113;SDS011;61301;51.956;5.876;2023-04-03T01:15:08;3.63;;;1.10;;
73113;SDS011;61301;51.956;5.876;2023-04-03T01:17:40;3.75;;;1.13;;
73113;SDS011;61301;51.956;5.876;2023-04-03T01:23:12;4.80;;;1.45;;
73113;SDS011;61301;51.956;5.876;2023-04-03T01:25:54;2.78;;;1.25;;
73113;SDS011;61301;51.956;5.876;2023-04-03T01:30:56;3.47;;;1.27;;
73113;SDS011;61301;51.956;5.876;2023-04-03T01:33:33;4.30;;;1.40;;
73113;SDS011;61301;51.956;5.876;2023-04-03T01:35:59;2.60;;;1.27;;
73113;SDS011;61301;51.956;5.876;2023-04-03T01:38:26;3.30;;;1.20;;
73113;SDS011;61301;51.956;5.876;2023-04-03T01:40:52;5.05;;;1.40;;
73113;SDS011;61301;51.956;5.876;2023-04-03T01:43:18;2.17;;;1.17;;
73113;SDS011;61301;51.956;5.876;2023-04-03T01:45:48;4.03;;;1.30;;
73113;SDS011;61301;51.956;5.876;2023-04-03T01:48:16;4.97;;;1.55;;
73113;SDS011;61301;51.956;5.876;2023-04-03T01:50:42;4.88;;;1.30;;
73113;SDS011;61301;51.956;5.876;2023-04-03T01:53:08;1.85;;;1.10;;
73113;SDS011;61301;51.956;5.876;2023-04-03T01:55:35;5.60;;;1.67;;
73113;SDS011;61301;51.956;5.876;2023-04-03T01:58:01;2.95;;;1.48;;
73113;SDS011;61301;51.956;5.876;2023-04-03T02:00:27;3.60;;;1.73;;
73113;SDS011;61301;51.956;5.876;2023-04-03T02:02:53;6.28;;;1.90;;
73113;SDS011;61301;51.956;5.876;2023-04-03T02:05:25;8.38;;;2.03;;
73113;SDS011;61301;51.956;5.876;2023-04-03T02:07:51;6.13;;;1.58;;
73113;SDS011;61301;51.956;5.876;2023-04-03T02:10:17;3.90;;;2.00;;
73113;SDS011;61301;51.956;5.876;2023-04-03T02:12:44;3.45;;;1.60;;
73113;SDS011;61301;51.956;5.876;2023-04-03T02:15:10;3.58;;;1.42;;
73113;SDS011;61301;51.956;5.876;2023-04-03T02:17:36;4.28;;;1.20;;
73113;SDS011;61301;51.956;5.876;2023-04-03T02:20:03;4.53;;;1.60;;
73113;SDS011;61301;51.956;5.876;2023-04-03T02:22:30;2.60;;;1.20;;
73113;SDS011;61301;51.956;5.876;2023-04-03T02:24:56;4.22;;;1.33;;
73113;SDS011;61301;51.956;5.876;2023-04-03T02:27:22;1.95;;;1.10;;
73113;SDS011;61301;51.956;5.876;2023-04-03T02:29:48;2.75;;;1.08;;
73113;SDS011;61301;51.956;5.876;2023-04-03T02:32:14;2.22;;;0.90;;
73113;SDS011;61301;51.956;5.876;2023-04-03T02:34:41;5.30;;;1.35;;
73113;SDS011;61301;51.956;5.876;2023-04-03T02:37:08;5.50;;;1.48;;
73113;SDS011;61301;51.956;5.876;2023-04-03T02:39:35;2.72;;;1.58;;
73113;SDS011;61301;51.956;5.876;2023-04-03T02:42:01;2.95;;;1.10;;
73113;SDS011;61301;51.956;5.876;2023-04-03T02:44:27;3.13;;;1.30;;
73113;SDS011;61301;51.956;5.876;2023-04-03T02:46:53;4.18;;;1.50;;
73113;SDS011;61301;51.956;5.876;2023-04-03T02:49:19;4.72;;;1.52;;
73113;SDS011;61301;51.956;5.876;2023-04-03T02:51:46;1.92;;;1.38;;
73113;SDS011;61301;51.956;5.876;2023-04-03T02:54:13;3.53;;;1.02;;
73113;SDS011;61301;51.956;5.876;2023-04-03T02:56:43;4.68;;;1.60;;
73113;SDS011;61301;51.956;5.876;2023-04-03T02:59:09;5.55;;;1.50;;
73113;SDS011;61301;51.956;5.876;2023-04-03T03:01:37;5.20;;;1.30;;
73113;SDS011;61301;51.956;5.876;2023-04-03T03:04:04;2.70;;;1.50;;
73113;SDS011;61301;51.956;5.876;2023-04-03T03:06:30;3.88;;;1.55;;
73113;SDS011;61301;51.956;5.876;2023-04-03T03:08:56;3.42;;;1.25;;
73113;SDS011;61301;51.956;5.876;2023-04-03T03:11:22;6.35;;;1.40;;
73113;SDS011;61301;51.956;5.876;2023-04-03T03:13:48;5.40;;;2.08;;
73113;SDS011;61301;51.956;5.876;2023-04-03T03:16:14;5.50;;;1.95;;
73113;SDS011;61301;51.956;5.876;2023-04-03T03:18:40;3.65;;;1.10;;
73113;SDS011;61301;51.956;5.876;2023-04-03T03:21:06;3.72;;;1.20;;
73113;SDS011;61301;51.956;5.876;2023-04-03T03:23:33;4.18;;;1.48;;
73113;SDS011;61301;51.956;5.876;2023-04-03T03:26:00;3.97;;;1.90;;
73113;SDS011;61301;51.956;5.876;2023-04-03T03:28:28;3.50;;;0.93;;
73113;SDS011;61301;51.956;5.876;2023-04-03T03:30:54;2.83;;;1.10;;
73113;SDS011;61301;51.956;5.876;2023-04-03T03:33:21;7.18;;;2.10;;
73113;SDS011;61301;51.956;5.876;2023-04-03T03:35:47;3.45;;;1.23;;
73113;SDS011;61301;51.956;5.876;2023-04-03T03:38:13;4.30;;;1.50;;
73113;SDS011;61301;51.956;5.876;2023-04-03T03:40:40;3.40;;;1.08;;
73113;SDS011;61301;51.956;5.876;2023-04-03T03:43:06;4.20;;;1.42;;
73113;SDS011;61301;51.956;5.876;2023-04-03T03:45:32;3.88;;;1.30;;
73113;SDS011;61301;51.956;5.876;2023-04-03T03:47:59;4.15;;;1.40;;
73113;SDS011;61301;51.956;5.876;2023-04-03T03:50:25;7.30;;;2.65;;
73113;SDS011;61301;51.956;5.876;2023-04-03T03:52:51;6.07;;;1.40;;
73113;SDS011;61301;51.956;5.876;2023-04-03T03:55:17;6.90;;;1.50;;
73113;SDS011;61301;51.956;5.876;2023-04-03T03:57:44;4.47;;;1.42;;
73113;SDS011;61301;51.956;5.876;2023-04-03T04:00:10;4.53;;;1.50;;
73113;SDS011;61301;51.956;5.876;2023-04-03T04:02:49;3.03;;;1.27;;
73113;SDS011;61301;51.956;5.876;2023-04-03T04:05:18;2.55;;;1.15;;
73113;SDS011;61301;51.956;5.876;2023-04-03T04:07:44;4.68;;;1.17;;
73113;SDS011;61301;51.956;5.876;2023-04-03T04:10:10;4.50;;;1.38;;
73113;SDS011;61301;51.956;5.876;2023-04-03T04:12:36;3.35;;;1.48;;
73113;SDS011;61301;51.956;5.876;2023-04-03T04:15:03;6.07;;;1.60;;
73113;SDS011;61301;51.956;5.876;2023-04-03T04:17:29;4.25;;;1.95;;
73113;SDS011;61301;51.956;5.876;2023-04-03T04:19:56;6.22;;;1.80;;
73113;SDS011;61301;51.956;5.876;2023-04-03T04:22:23;7.80;;;1.60;;
73113;SDS011;61301;51.956;5.876;2023-04-03T04:24:50;2.60;;;1.30;;
73113;SDS011;61301;51.956;5.876;2023-04-03T04:27:16;5.07;;;1.50;;
73113;SDS011;61301;51.956;5.876;2023-04-03T04:29:42;5.80;;;1.52;;
73113;SDS011;61301;51.956;5.876;2023-04-03T04:32:09;3.65;;;1.67;;
73113;SDS011;61301;51.956;5.876;2023-04-03T04:34:35;4.35;;;1.38;;
73113;SDS011;61301;51.956;5.876;2023-04-03T04:37:02;5.55;;;1.55;;
73113;SDS011;61301;51.956;5.876;2023-04-03T04:39:28;3.10;;;1.33;;
73113;SDS011;61301;51.956;5.876;2023-04-03T04:41:57;4.32;;;1.80;;
73113;SDS011;61301;51.956;5.876;2023-04-03T04:44:25;5.28;;;1.75;;
73113;SDS011;61301;51.956;5.876;2023-04-03T04:46:51;5.43;;;1.85;;
73113;SDS011;61301;51.956;5.876;2023-04-03T04:49:20;4.28;;;1.20;;
73113;SDS011;61301;51.956;5.876;2023-04-03T04:51:46;3.92;;;1.45;;
73113;SDS011;61301;51.956;5.876;2023-04-03T04:54:13;3.83;;;1.60;;
73113;SDS011;61301;51.956;5.876;2023-04-03T04:56:39;4.25;;;1.48;;
73113;SDS011;61301;51.956;5.876;2023-04-03T04:59:06;6.10;;;2.25;;
73113;SDS011;61301;51.956;5.876;2023-04-03T05:01:32;6.15;;;1.60;;
73113;SDS011;61301;51.956;5.876;2023-04-03T05:04:04;3.83;;;1.73;;
73113;SDS011;61301;51.956;5.876;2023-04-03T05:06:30;3.85;;;1.40;;
73113;SDS011;61301;51.956;5.876;2023-04-03T05:08:58;3.00;;;1.20;;
73113;SDS011;61301;51.956;5.876;2023-04-03T05:11:25;2.95;;;1.40;;
73113;SDS011;61301;51.956;5.876;2023-04-03T05:13:52;6.40;;;1.83;;
73113;SDS011;61301;51.956;5.876;2023-04-03T05:16:18;5.55;;;1.70;;
73113;SDS011;61301;51.956;5.876;2023-04-03T05:18:44;3.53;;;1.58;;
73113;SDS011;61301;51.956;5.876;2023-04-03T05:21:20;4.60;;;1.70;;
73113;SDS011;61301;51.956;5.876;2023-04-03T05:23:49;7.28;;;2.03;;
73113;SDS011;61301;51.956;5.876;2023-04-03T05:26:15;7.30;;;1.90;;
73113;SDS011;61301;51.956;5.876;2023-04-03T05:28:42;6.22;;;1.88;;
73113;SDS011;61301;51.956;5.876;2023-04-03T05:31:10;4.88;;;1.73;;
73113;SDS011;61301;51.956;5.876;2023-04-03T05:33:36;5.38;;;1.67;;
73113;SDS011;61301;51.956;5.876;2023-04-03T05:36:04;5.03;;;2.08;;
73113;SDS011;61301;51.956;5.876;2023-04-03T05:38:35;6.10;;;2.40;;
73113;SDS011;61301;51.956;5.876;2023-04-03T05:41:01;6.45;;;2.50;;
73113;SDS011;61301;51.956;5.876;2023-04-03T05:43:27;7.85;;;3.13;;
73113;SDS011;61301;51.956;5.876;2023-04-03T05:45:53;3.45;;;2.00;;
73113;SDS011;61301;51.956;5.876;2023-04-03T05:48:22;3.65;;;1.73;;
73113;SDS011;61301;51.956;5.876;2023-04-03T05:50:49;4.38;;;2.25;;
73113;SDS011;61301;51.956;5.876;2023-04-03T05:53:21;7.25;;;1.88;;
73113;SDS011;61301;51.956;5.876;2023-04-03T05:55:52;5.00;;;1.98;;
73113;SDS011;61301;51.956;5.876;2023-04-03T05:58:19;8.32;;;2.05;;
73113;SDS011;61301;51.956;5.876;2023-04-03T06:00:47;6.25;;;1.95;;
73113;SDS011;61301;51.956;5.876;2023-04-03T06:03:14;5.18;;;1.50;;
73113;SDS011;61301;51.956;5.876;2023-04-03T06:05:40;7.47;;;2.20;;
73113;SDS011;61301;51.956;5.876;2023-04-03T06:08:07;3.78;;;1.85;;
73113;SDS011;61301;51.956;5.876;2023-04-03T06:10:35;7.03;;;2.30;;
73113;SDS011;61301;51.956;5.876;2023-04-03T06:13:01;6.03;;;2.22;;
73113;SDS011;61301;51.956;5.876;2023-04-03T06:15:31;5.13;;;1.67;;
73113;SDS011;61301;51.956;5.876;2023-04-03T06:17:57;4.53;;;1.80;;
73113;SDS011;61301;51.956;5.876;2023-04-03T06:20:23;4.15;;;1.98;;
73113;SDS011;61301;51.956;5.876;2023-04-03T06:22:50;6.75;;;1.70;;
73113;SDS011;61301;51.956;5.876;2023-04-03T06:25:16;7.50;;;2.33;;
73113;SDS011;61301;51.956;5.876;2023-04-03T06:27:44;6.95;;;1.90;;
73113;SDS011;61301;51.956;5.876;2023-04-03T06:30:11;6.35;;;1.75;;
73113;SDS011;61301;51.956;5.876;2023-04-03T06:32:37;5.97;;;2.20;;
73113;SDS011;61301;51.956;5.876;2023-04-03T06:35:04;4.80;;;1.63;;
73113;SDS011;61301;51.956;5.876;2023-04-03T06:37:30;7.20;;;1.75;;
73113;SDS011;61301;51.956;5.876;2023-04-03T06:39:58;4.15;;;1.83;;
73113;SDS011;61301;51.956;5.876;2023-04-03T06:42:26;2.95;;;1.45;;
73113;SDS011;61301;51.956;5.876;2023-04-03T06:44:58;4.38;;;1.55;;
73113;SDS011;61301;51.956;5.876;2023-04-03T06:47:24;6.03;;;1.98;;
73113;SDS011;61301;51.956;5.876;2023-04-03T06:49:50;6.18;;;1.70;;
73113;SDS011;61301;51.956;5.876;2023-04-03T06:52:16;5.63;;;1.50;;
73113;SDS011;61301;51.956;5.876;2023-04-03T06:54:42;4.13;;;1.70;;
73113;SDS011;61301;51.956;5.876;2023-04-03T06:57:08;9.00;;;1.98;;
73113;SDS011;61301;51.956;5.876;2023-04-03T06:59:34;5.40;;;2.10;;
73113;SDS011;61301;51.956;5.876;2023-04-03T07:02:01;7.70;;;2.03;;
73113;SDS011;61301;51.956;5.876;2023-04-03T07:04:27;6.75;;;1.65;;
73113;SDS011;61301;51.956;5.876;2023-04-03T07:06:53;5.38;;;1.70;;
73113;SDS011;61301;51.956;5.876;2023-04-03T07:09:19;6.93;;;2.13;;
73113;SDS011;61301;51.956;5.876;2023-04-03T07:11:45;6.88;;;2.72;;
73113;SDS011;61301;51.956;5.876;2023-04-03T07:14:11;6.47;;;2.13;;
73113;SDS011;61301;51.956;5.876;2023-04-03T07:16:37;7.43;;;2.03;;
73113;SDS011;61301;51.956;5.876;2023-04-03T07:19:03;4.13;;;1.88;;
73113;SDS011;61301;51.956;5.876;2023-04-03T07:21:29;6.47;;;1.88;;
73113;SDS011;61301;51.956;5.876;2023-04-03T07:23:55;3.63;;;1.70;;
73113;SDS011;61301;51.956;5.876;2023-04-03T07:26:21;6.47;;;1.80;;
73113;SDS011;61301;51.956;5.876;2023-04-03T07:28:48;6.93;;;1.95;;
73113;SDS011;61301;51.956;5.876;2023-04-03T07:31:15;5.30;;;1.73;;
73113;SDS011;61301;51.956;5.876;2023-04-03T07:33:43;3.88;;;1.80;;
73113;SDS011;61301;51.956;5.876;2023-04-03T07:36:17;5.90;;;1.73;;
73113;SDS011;61301;51.956;5.876;2023-04-03T07:38:45;10.32;;;2.72;;
73113;SDS011;61301;51.956;5.876;2023-04-03T07:41:14;3.78;;;1.70;;
73113;SDS011;61301;51.956;5.876;2023-04-03T07:43:44;5.00;;;1.50;;
73113;SDS011;61301;51.956;5.876;2023-04-03T07:46:10;6.70;;;2.03;;
73113;SDS011;61301;51.956;5.876;2023-04-03T07:48:37;3.70;;;1.48;;
73113;SDS011;61301;51.956;5.876;2023-04-03T07:51:04;8.35;;;2.03;;
73113;SDS011;61301;51.956;5.876;2023-04-03T07:53:31;5.78;;;2.15;;
73113;SDS011;61301;51.956;5.876;2023-04-03T07:55:57;5.95;;;1.55;;
73113;SDS011;61301;51.956;5.876;2023-04-03T07:58:24;5.05;;;1.60;;
73113;SDS011;61301;51.956;5.876;2023-04-03T08:00:51;7.30;;;1.48;;
73113;SDS011;61301;51.956;5.876;2023-04-03T08:03:17;4.97;;;1.30;;
73113;SDS011;61301;51.956;5.876;2023-04-03T08:05:45;4.65;;;1.40;;
73113;SDS011;61301;51.956;5.876;2023-04-03T08:08:13;7.03;;;1.70;;
73113;SDS011;61301;51.956;5.876;2023-04-03T08:10:44;4.75;;;1.65;;
73113;SDS011;61301;51.956;5.876;2023-04-03T08:13:18;3.45;;;1.17;;
73113;SDS011;61301;51.956;5.876;2023-04-03T08:15:44;5.47;;;1.80;;
73113;SDS011;61301;51.956;5.876;2023-04-03T08:18:13;5.85;;;1.60;;
73113;SDS011;61301;51.956;5.876;2023-04-03T08:20:40;3.47;;;1.35;;
73113;SDS011;61301;51.956;5.876;2023-04-03T08:23:07;3.63;;;1.30;;
73113;SDS011;61301;51.956;5.876;2023-04-03T08:25:34;4.63;;;0.90;;
73113;SDS011;61301;51.956;5.876;2023-04-03T08:28:03;5.57;;;1.85;;
73113;SDS011;61301;51.956;5.876;2023-04-03T08:30:29;3.30;;;1.30;;
73113;SDS011;61301;51.956;5.876;2023-04-03T08:32:56;4.22;;;1.30;;
73113;SDS011;61301;51.956;5.876;2023-04-03T08:35:22;3.92;;;1.30;;
73113;SDS011;61301;51.956;5.876;2023-04-03T08:37:51;3.92;;;1.20;;
73113;SDS011;61301;51.956;5.876;2023-04-03T08:40:20;1.88;;;0.90;;
73113;SDS011;61301;51.956;5.876;2023-04-03T08:45:34;4.75;;;1.13;;
73113;SDS011;61301;51.956;5.876;2023-04-03T08:48:20;5.05;;;1.58;;
73113;SDS011;61301;51.956;5.876;2023-04-03T08:53:21;2.55;;;1.00;;
73113;SDS011;61301;51.956;5.876;2023-04-03T08:55:50;1.67;;;1.00;;
73113;SDS011;61301;51.956;5.876;2023-04-03T08:58:19;1.23;;;0.77;;
73113;SDS011;61301;51.956;5.876;2023-04-03T09:03:20;2.42;;;1.08;;
73113;SDS011;61301;51.956;5.876;2023-04-03T09:08:23;2.83;;;0.90;;
73113;SDS011;61301;51.956;5.876;2023-04-03T09:11:15;1.42;;;0.75;;
73113;SDS011;61301;51.956;5.876;2023-04-03T09:13:44;1.73;;;0.63;;
73113;SDS011;61301;51.956;5.876;2023-04-03T09:19:07;2.95;;;0.50;;
73113;SDS011;61301;51.956;5.876;2023-04-03T09:21:41;1.67;;;0.82;;
73113;SDS011;61301;51.956;5.876;2023-04-03T09:24:09;2.47;;;0.70;;
73113;SDS011;61301;51.956;5.876;2023-04-03T09:26:51;3.10;;;0.90;;
73113;SDS011;61301;51.956;5.876;2023-04-03T09:29:25;1.85;;;0.50;;
73113;SDS011;61301;51.956;5.876;2023-04-03T09:32:01;1.90;;;0.57;;
73113;SDS011;61301;51.956;5.876;2023-04-03T09:34:35;1.38;;;0.75;;
73113;SDS011;61301;51.956;5.876;2023-04-03T09:37:03;0.75;;;0.45;;
73113;SDS011;61301;51.956;5.876;2023-04-03T09:39:49;1.63;;;0.50;;
73113;SDS011;61301;51.956;5.876;2023-04-03T09:42:21;3.95;;;0.63;;
73113;SDS011;61301;51.956;5.876;2023-04-03T09:44:56;1.35;;;0.60;;
73113;SDS011;61301;51.956;5.876;2023-04-03T09:47:25;2.08;;;0.73;;
73113;SDS011;61301;51.956;5.876;2023-04-03T09:52:44;3.05;;;0.75;;
73113;SDS011;61301;51.956;5.876;2023-04-03T09:55:30;3.60;;;0.73;;
73113;SDS011;61301;51.956;5.876;2023-04-03T09:57:57;1.35;;;0.50;;
73113;SDS011;61301;51.956;5.876;2023-04-03T10:00:26;0.68;;;0.40;;
73113;SDS011;61301;51.956;5.876;2023-04-03T10:02:57;1.63;;;0.82;;
73113;SDS011;61301;51.956;5.876;2023-04-03T10:05:32;2.17;;;0.70;;
73113;SDS011;61301;51.956;5.876;2023-04-03T10:10:39;1.13;;;0.50;;
73113;SDS011;61301;51.956;5.876;2023-04-03T10:13:25;2.42;;;0.50;;
73113;SDS011;61301;51.956;5.876;2023-04-03T10:15:54;0.75;;;0.55;;
73113;SDS011;61301;51.956;5.876;2023-04-03T10:18:46;1.30;;;0.60;;
73113;SDS011;61301;51.956;5.876;2023-04-03T10:26:43;0.82;;;0.57;;
73113;SDS011;61301;51.956;5.876;2023-04-03T10:32:09;3.10;;;0.90;;
73113;SDS011;61301;51.956;5.876;2023-04-03T10:35:03;1.25;;;0.55;;
73113;SDS011;61301;51.956;5.876;2023-04-03T10:38:03;1.52;;;0.75;;
73113;SDS011;61301;51.956;5.876;2023-04-03T10:41:12;1.83;;;0.65;;
73113;SDS011;61301;51.956;5.876;2023-04-03T10:43:53;1.48;;;0.73;;
73113;SDS011;61301;51.956;5.876;2023-04-03T10:46:47;3.38;;;0.80;;
73113;SDS011;61301;51.956;5.876;2023-04-03T10:49:20;1.55;;;0.80;;
73113;SDS011;61301;51.956;5.876;2023-04-03T10:54:46;6.63;;;0.80;;
73113;SDS011;61301;51.956;5.876;2023-04-03T10:57:22;2.55;;;0.70;;
73113;SDS011;61301;51.956;5.876;2023-04-03T11:05:05;1.98;;;0.77;;
73113;SDS011;61301;51.956;5.876;2023-04-03T11:07:40;1.42;;;0.93;;
73113;SDS011;61301;51.956;5.876;2023-04-03T11:12:48;2.55;;;0.80;;
73113;SDS011;61301;51.956;5.876;2023-04-03T11:15:20;2.60;;;0.70;;
73113;SDS011;61301;51.956;5.876;2023-04-03T11:17:53;1.73;;;0.60;;
73113;SDS011;61301;51.956;5.876;2023-04-03T11:20:28;3.22;;;0.80;;
73113;SDS011;61301;51.956;5.876;2023-04-03T11:26:01;1.63;;;0.80;;
73113;SDS011;61301;51.956;5.876;2023-04-03T11:28:35;0.88;;;0.50;;
73113;SDS011;61301;51.956;5.876;2023-04-03T11:31:07;1.85;;;0.77;;
73113;SDS011;61301;51.956;5.876;2023-04-03T11:34:57;2.55;;;0.70;;
73113;SDS011;61301;51.956;5.876;2023-04-03T11:37:00;1.63;;;0.68;;
73113;SDS011;61301;51.956;5.876;2023-04-03T11:39:30;2.22;;;0.60;;
73113;SDS011;61301;51.956;5.876;2023-04-03T11:42:22;1.27;;;0.55;;
73113;SDS011;61301;51.956;5.876;2023-04-03T11:45:15;2.10;;;1.00;;
73113;SDS011;61301;51.956;5.876;2023-04-03T12:05:49;2.33;;;0.75;;
73113;SDS011;61301;51.956;5.876;2023-04-03T12:11:47;2.50;;;0.88;;
73113;SDS011;61301;51.956;5.876;2023-04-03T12:24:31;2.88;;;0.52;;
73113;SDS011;61301;51.956;5.876;2023-04-03T12:45:17;2.63;;;0.80;;
73113;SDS011;61301;51.956;5.876;2023-04-03T12:47:48;4.07;;;1.00;;
73113;SDS011;61301;51.956;5.876;2023-04-03T12:50:21;2.00;;;1.00;;
73113;SDS011;61301;51.956;5.876;2023-04-03T12:55:28;1.67;;;0.68;;
73113;SDS011;61301;51.956;5.876;2023-04-03T12:57:54;2.92;;;1.50;;
73113;SDS011;61301;51.956;5.876;2023-04-03T13:02:59;1.70;;;0.85;;
73113;SDS011;61301;51.956;5.876;2023-04-03T13:05:27;2.90;;;0.80;;
73113;SDS011;61301;51.956;5.876;2023-04-03T13:08:05;8.27;;;1.10;;
73113;SDS011;61301;51.956;5.876;2023-04-03T13:10:43;2.70;;;0.70;;
73113;SDS011;61301;51.956;5.876;2023-04-03T13:13:20;2.08;;;0.95;;
73113;SDS011;61301;51.956;5.876;2023-04-03T13:15:48;2.83;;;0.90;;
73113;SDS011;61301;51.956;5.876;2023-04-03T13:18:23;3.25;;;1.10;;
73113;SDS011;61301;51.956;5.876;2023-04-03T13:20:52;2.92;;;1.10;;
73113;SDS011;61301;51.956;5.876;2023-04-03T13:23:19;2.75;;;1.05;;
73113;SDS011;61301;51.956;5.876;2023-04-03T13:25:47;2.03;;;0.73;;
73113;SDS011;61301;51.956;5.876;2023-04-03T13:28:19;4.95;;;1.60;;
73113;SDS011;61301;51.956;5.876;2023-04-03T13:30:58;2.97;;;1.20;;
73113;SDS011;61301;51.956;5.876;2023-04-03T13:33:50;3.17;;;1.00;;
73113;SDS011;61301;51.956;5.876;2023-04-03T13:36:43;3.05;;;1.40;;
73113;SDS011;61301;51.956;5.876;2023-04-03T13:41:42;2.40;;;1.00;;
73113;SDS011;61301;51.956;5.876;2023-04-03T13:46:51;2.70;;;1.02;;
73113;SDS011;61301;51.956;5.876;2023-04-03T13:52:00;3.05;;;1.27;;
73113;SDS011;61301;51.956;5.876;2023-04-03T13:54:34;4.28;;;1.10;;
73113;SDS011;61301;51.956;5.876;2023-04-03T13:57:03;3.53;;;1.08;;
73113;SDS011;61301;51.956;5.876;2023-04-03T13:59:39;2.33;;;1.10;;
73113;SDS011;61301;51.956;5.876;2023-04-03T14:07:10;3.00;;;1.00;;
73113;SDS011;61301;51.956;5.876;2023-04-03T14:09:37;4.40;;;1.02;;
73113;SDS011;61301;51.956;5.876;2023-04-03T14:12:24;2.85;;;0.77;;
73113;SDS011;61301;51.956;5.876;2023-04-03T14:14:54;3.80;;;1.02;;
73113;SDS011;61301;51.956;5.876;2023-04-03T14:17:23;3.20;;;1.10;;
73113;SDS011;61301;51.956;5.876;2023-04-03T14:19:52;1.52;;;0.90;;
73113;SDS011;61301;51.956;5.876;2023-04-03T14:22:24;3.75;;;0.80;;
73113;SDS011;61301;51.956;5.876;2023-04-03T14:24:56;3.70;;;1.10;;
73113;SDS011;61301;51.956;5.876;2023-04-03T14:27:24;5.55;;;1.30;;
73113;SDS011;61301;51.956;5.876;2023-04-03T14:29:53;3.15;;;1.13;;
73113;SDS011;61301;51.956;5.876;2023-04-03T14:32:20;3.25;;;1.08;;
73113;SDS011;61301;51.956;5.876;2023-04-03T14:34:48;3.55;;;1.40;;
73113;SDS011;61301;51.956;5.876;2023-04-03T14:37:17;1.90;;;0.98;;
73113;SDS011;61301;51.956;5.876;2023-04-03T14:39:45;2.00;;;0.93;;
73113;SDS011;61301;51.956;5.876;2023-04-03T14:42:13;3.80;;;1.02;;
73113;SDS011;61301;51.956;5.876;2023-04-03T14:44:42;3.95;;;1.33;;
73113;SDS011;61301;51.956;5.876;2023-04-03T14:47:12;1.55;;;1.02;;
73113;SDS011;61301;51.956;5.876;2023-04-03T14:49:40;1.95;;;1.20;;
73113;SDS011;61301;51.956;5.876;2023-04-03T14:52:09;3.38;;;1.30;;
73113;SDS011;61301;51.956;5.876;2023-04-03T14:54:44;2.85;;;1.33;;
73113;SDS011;61301;51.956;5.876;2023-04-03T14:57:11;5.18;;;1.25;;
73113;SDS011;61301;51.956;5.876;2023-04-03T14:59:39;4.65;;;1.48;;
73113;SDS011;61301;51.956;5.876;2023-04-03T15:05:02;2.47;;;1.10;;
73113;SDS011;61301;51.956;5.876;2023-04-03T15:07:50;2.65;;;1.60;;
73113;SDS011;61301;51.956;5.876;2023-04-03T15:10:26;4.57;;;1.35;;
73113;SDS011;61301;51.956;5.876;2023-04-03T15:12:54;2.35;;;1.17;;
73113;SDS011;61301;51.956;5.876;2023-04-03T15:15:21;3.55;;;0.93;;
73113;SDS011;61301;51.956;5.876;2023-04-03T15:17:54;4.30;;;1.23;;
73113;SDS011;61301;51.956;5.876;2023-04-03T15:20:24;4.22;;;1.42;;
73113;SDS011;61301;51.956;5.876;2023-04-03T15:22:52;2.78;;;1.13;;
73113;SDS011;61301;51.956;5.876;2023-04-03T15:25:18;4.32;;;1.27;;
73113;SDS011;61301;51.956;5.876;2023-04-03T15:27:44;3.70;;;1.02;;
73113;SDS011;61301;51.956;5.876;2023-04-03T15:30:13;3.13;;;1.42;;
73113;SDS011;61301;51.956;5.876;2023-04-03T15:32:42;3.17;;;1.30;;
73113;SDS011;61301;51.956;5.876;2023-04-03T15:35:08;2.75;;;1.33;;
73113;SDS011;61301;51.956;5.876;2023-04-03T15:37:34;3.72;;;1.33;;
73113;SDS011;61301;51.956;5.876;2023-04-03T15:40:01;2.38;;;1.50;;
73113;SDS011;61301;51.956;5.876;2023-04-03T15:42:27;3.17;;;1.27;;
73113;SDS011;61301;51.956;5.876;2023-04-03T15:44:53;3.65;;;1.55;;
73113;SDS011;61301;51.956;5.876;2023-04-03T15:47:19;2.85;;;1.00;;
73113;SDS011;61301;51.956;5.876;2023-04-03T15:49:45;3.10;;;1.23;;
73113;SDS011;61301;51.956;5.876;2023-04-03T15:52:11;5.90;;;1.50;;
73113;SDS011;61301;51.956;5.876;2023-04-03T15:54:37;3.15;;;1.20;;
73113;SDS011;61301;51.956;5.876;2023-04-03T15:57:03;2.97;;;1.00;;
73113;SDS011;61301;51.956;5.876;2023-04-03T15:59:29;2.83;;;1.05;;
73113;SDS011;61301;51.956;5.876;2023-04-03T16:01:59;3.60;;;1.30;;
73113;SDS011;61301;51.956;5.876;2023-04-03T16:04:27;3.03;;;1.25;;
73113;SDS011;61301;51.956;5.876;2023-04-03T16:06:53;5.32;;;1.90;;
73113;SDS011;61301;51.956;5.876;2023-04-03T16:09:19;1.83;;;1.00;;
73113;SDS011;61301;51.956;5.876;2023-04-03T16:11:45;1.92;;;0.90;;
73113;SDS011;61301;51.956;5.876;2023-04-03T16:14:12;4.60;;;1.50;;
73113;SDS011;61301;51.956;5.876;2023-04-03T16:16:38;4.68;;;1.63;;
73113;SDS011;61301;51.956;5.876;2023-04-03T16:19:04;2.83;;;0.93;;
73113;SDS011;61301;51.956;5.876;2023-04-03T16:21:33;4.15;;;1.48;;
73113;SDS011;61301;51.956;5.876;2023-04-03T16:23:59;4.63;;;2.47;;
73113;SDS011;61301;51.956;5.876;2023-04-03T16:26:27;7.15;;;4.50;;
73113;SDS011;61301;51.956;5.876;2023-04-03T16:28:53;3.50;;;1.52;;
73113;SDS011;61301;51.956;5.876;2023-04-03T16:31:26;3.10;;;0.95;;
73113;SDS011;61301;51.956;5.876;2023-04-03T16:33:52;3.00;;;1.17;;
73113;SDS011;61301;51.956;5.876;2023-04-03T16:36:19;3.33;;;1.15;;
73113;SDS011;61301;51.956;5.876;2023-04-03T16:38:51;3.97;;;1.63;;
73113;SDS011;61301;51.956;5.876;2023-04-03T16:41:17;2.58;;;1.45;;
73113;SDS011;61301;51.956;5.876;2023-04-03T16:43:43;3.47;;;1.42;;
73113;SDS011;61301;51.956;5.876;2023-04-03T16:46:09;4.25;;;1.70;;
73113;SDS011;61301;51.956;5.876;2023-04-03T16:48:35;3.70;;;1.58;;
73113;SDS011;61301;51.956;5.876;2023-04-03T16:51:02;2.33;;;0.93;;
73113;SDS011;61301;51.956;5.876;2023-04-03T16:53:28;3.55;;;1.20;;
73113;SDS011;61301;51.956;5.876;2023-04-03T16:55:54;3.53;;;1.17;;
73113;SDS011;61301;51.956;5.876;2023-04-03T16:58:22;3.63;;;1.45;;
73113;SDS011;61301;51.956;5.876;2023-04-03T17:00:48;3.88;;;1.35;;